Latest Weather Observations for Friendly Beaches

IDT60801

Issued at 3:02 pm EDT Sunday 1 March 2015 (issued every 30 minutes, with the page automatically refreshed every 10 minutes)

About weather observations | Map of weather stations | Latest weather observations for TAS | Other Formats
Station Details ID: 092114 Name: FRIENDLY BEACHES Lat: -42.00 Lon: 148.28 Height: 55.0 m
Data from the previous 72 hours. | See also: Recent months at Friendly Beaches
Date/Time
EDT
Temp
°C
App
Temp
°C
Dew
Point
Rel
Hum
%
Delta-T
°C
Wind Press
QNH
hPa
Press
MSL
hPa
Rain
since 9 am
mm
Dir
 
Spd
km/h
Gust
km/h
Spd
kts
Gust
kts
01/03:00pm 21.5 16.1 8.1 42 7.0 S 26 41 14 22 1009.5 1009.4 0.0
01/02:30pm 22.1 17.8 7.9 40 7.4 S 20 33 11 18 1009.1 1009.0 0.0
01/02:00pm 21.8 17.9 8.7 43 7.0 SSW 19 28 10 15 1008.6 1008.5 0.0
01/01:30pm 19.0 13.6 6.5 44 6.2 SW 24 44 13 24 1008.5 1008.4 0.0
01/01:00pm 20.9 15.9 7.9 43 6.8 SW 24 39 13 21 1008.0 1007.9 0.0
01/12:30pm 20.9 16.5 7.5 42 6.9 SW 20 32 11 17 1007.4 1007.3 0.0
01/12:00pm 20.3 15.2 7.7 44 6.5 SW 24 37 13 20 1007.1 1007.0 0.0
01/11:30am 19.9 15.0 8.3 47 6.1 SW 24 37 13 20 1006.7 1006.6 0.0
01/11:00am 19.2 13.7 7.6 47 5.9 SW 26 50 14 27 1006.7 1006.6 0.0
01/10:49am 18.5 12.5 7.0 47 5.8 WSW 28 48 15 26 1006.4 1006.2 0.0
01/10:30am 18.9 14.3 8.3 50 5.5 SW 22 37 12 20 1006.0 1005.8 0.0
01/10:00am 18.0 13.6 7.4 50 5.4 SW 20 44 11 24 1005.5 1005.3 0.0
01/09:30am 17.9 13.8 7.9 52 5.1 WSW 19 26 10 14 1005.0 1004.8 0.0
01/09:00am 17.0 13.3 7.9 55 4.6 WSW 17 28 9 15 1004.4 1004.2 0.0
01/08:30am 16.3 12.6 8.0 58 4.2 WSW 17 28 9 15 1004.0 1003.8 0.0
01/08:00am 15.4 12.8 7.9 61 3.8 WSW 11 20 6 11 1003.5 1003.3 0.0
01/07:30am 14.8 11.0 7.6 62 3.6 WSW 17 22 9 12 1002.9 1002.7 0.0
01/07:00am 14.6 11.5 7.4 62 3.6 WSW 13 22 7 12 1002.4 1002.2 0.0
01/06:30am 14.4 11.8 7.7 64 3.3 SW 11 15 6 8 1001.8 1001.6 0.0
01/06:00am 15.0 12.5 8.0 63 3.5 SW 11 22 6 12 1001.0 1000.9 0.0
01/05:30am 15.3 12.6 9.0 66 3.2 SW 13 22 7 12 1000.6 1000.5 0.0
01/05:00am 15.9 14.1 10.9 72 2.7 WSW 11 17 6 9 1000.3 1000.2 0.0
01/04:30am 16.4 15.4 12.2 76 2.3 WSW 9 13 5 7 1000.0 999.9 0.0
01/04:00am 17.2 16.8 13.1 77 2.3 W 7 13 4 7 999.7 999.6 0.0
01/03:30am 18.2 17.5 13.1 72 2.9 WNW 9 15 5 8 999.6 999.5 0.0
01/03:00am 18.8 18.5 13.2 70 3.2 WNW 7 17 4 9 999.5 999.4 0.0
01/02:30am 19.0 18.5 13.8 72 3.0 NW 9 17 5 9 999.4 999.3 0.0
01/02:00am 18.5 19.5 14.4 77 2.4 W 2 9 1 5 999.6 999.5 0.0
01/01:30am 19.1 19.4 14.6 75 2.6 WNW 6 13 3 7 999.6 999.5 0.0
01/01:00am 18.2 18.9 15.6 85 1.5 SSE 6 11 3 6 999.5 999.4 0.0
01/12:30am 18.3 19.4 15.7 85 1.5 SSW 4 7 2 4 999.5 999.4 0.0
 
Date/Time
EDT
Temp
°C
App
Temp
°C
Dew
Point
Rel
Hum
%
Delta-T
°C
Wind Press
QNH
hPa
Press
MSL
hPa
Rain
since 9 am
mm
Dir
 
Spd
km/h
Gust
km/h
Spd
kts
Gust
kts
28/11:30pm 19.5 19.9 15.2 76 2.5 NNW 7 17 4 9 999.8 999.7 0.0
28/11:00pm 18.2 19.3 15.6 85 1.5 SSE 4 6 2 3 999.3 999.2 0.0
28/10:30pm 18.4 19.9 15.6 84 1.7 NW 2 7 1 4 999.5 999.4 0.0
28/10:00pm 18.4 18.6 15.8 85 1.5 N 9 15 5 8 999.2 999.1 0.0
28/09:30pm 18.2 17.6 15.6 85 1.5 NNE 13 20 7 11 998.7 998.6 0.0
28/09:00pm 18.9 18.0 15.8 82 1.9 N 15 20 8 11 999.3 999.2 0.0
28/08:30pm 19.0 19.6 15.7 81 2.0 NW 7 17 4 9 999.8 999.7 0.0
28/08:00pm 19.1 18.1 15.6 80 2.1 NNE 15 20 8 11 998.7 998.6 0.0
28/07:30pm 19.7 17.8 15.8 78 2.3 N 20 30 11 16 998.8 998.7 0.0
28/07:00pm 21.6 22.3 15.7 69 3.6 N 6 11 3 6 999.2 999.1 0.0
28/06:30pm 22.0 22.3 16.1 69 3.6 NNE 9 17 5 9 999.0 998.9 0.0
28/06:00pm 20.5 18.5 15.5 73 3.0 N 20 30 11 16 998.9 998.8 0.0
28/05:30pm 21.5 20.1 14.4 64 4.2 N 15 22 8 12 999.5 999.4 0.0
28/05:00pm 21.7 21.9 14.6 64 4.2 N 7 13 4 7 999.9 999.8 0.0
28/04:30pm 21.2 21.4 14.6 66 3.9 N 7 13 4 7 1000.1 1000.0 0.0
28/04:00pm 20.4 19.1 13.6 65 3.9 NNW 13 20 7 11 1000.5 1000.4 0.0
28/03:30pm 19.8 19.4 14.0 69 3.4 N 9 17 5 9 1000.8 1000.7 0.0
28/03:00pm 19.2 18.6 13.6 70 3.2 NNE 9 13 5 7 1001.0 1000.9 0.0
28/02:30pm 19.2 19.3 14.5 74 2.7 E 7 13 4 7 1001.7 1001.5 0.0
28/02:00pm 18.2 17.1 12.0 67 3.4 N 9 13 5 7 1002.2 1002.0 0.0
28/01:30pm 18.0 16.1 13.1 73 2.8 N 15 24 8 13 1002.5 1002.3 0.0
28/01:00pm 17.8 16.6 12.7 72 2.9 N 11 26 6 14 1002.9 1002.7 0.0
28/12:30pm 17.6 15.2 14.3 81 1.9 NNE 20 30 11 16 1003.1 1002.9 0.0
28/12:00pm 18.2 16.7 13.1 72 2.9 N 13 22 7 12 1003.6 1003.4 0.0
28/11:30am 18.9 16.5 13.7 72 3.0 NNE 19 30 10 16 1004.2 1004.0 0.0
28/11:00am 18.5 16.0 14.0 75 2.6 NNE 20 32 11 17 1004.9 1004.7 0.0
28/10:30am 18.8 16.4 13.9 73 2.8 NNE 19 30 10 16 1005.2 1005.0 0.0
28/10:00am 17.8 16.4 13.5 76 2.4 NE 13 22 7 12 1005.7 1005.5 0.0
28/09:30am 17.2 16.5 13.3 78 2.2 NNE 9 17 5 9 1006.1 1005.9 0.0
28/09:00am 16.3 15.4 12.7 79 2.0 NE 9 15 5 8 1006.2 1006.0 0.6
28/08:30am 15.4 14.8 12.3 82 1.7 NE 7 11 4 6 1006.3 1006.1 0.6
28/08:00am 14.9 15.2 12.2 84 1.5 N 2 6 1 3 1006.9 1006.8 0.6
28/07:30am 13.4 12.6 10.9 85 1.3 NW 6 6 3 3 1007.2 1007.1 0.6
28/07:00am 13.1 12.2 10.5 84 1.4 NW 6 6 3 3 1006.9 1006.8 0.6
28/06:30am 12.9 11.9 10.4 85 1.3 NW 6 7 3 4 1007.1 1007.0 0.6
28/06:00am 12.8 11.6 10.3 85 1.3 WNW 7 7 4 4 1007.6 1007.5 0.6
28/05:30am 13.3 12.4 10.7 84 1.4 WNW 6 7 3 4 1007.7 1007.6 0.6
28/05:00am 13.5 13.0 10.9 84 1.4 NW 4 4 2 2 1007.9 1007.8 0.6
28/04:30am 13.6 13.2 11.0 84 1.4 W 4 4 2 2 1008.7 1008.6 0.6
28/04:00am 13.7 13.2 10.9 83 1.5 WSW 4 6 2 3 1008.8 1008.7 0.6
28/03:30am 13.7 13.3 11.0 84 1.4 NW 4 4 2 2 1009.2 1009.1 0.6
28/03:00am 13.9 13.4 10.9 82 1.6 W 4 6 2 3 1009.4 1009.3 0.6
28/02:30am 14.0 13.6 11.0 82 1.6 SSW 4 6 2 3 1009.3 1009.2 0.6
28/02:00am 14.0 13.2 11.0 82 1.6 SW 6 9 3 5 1009.6 1009.5 0.6
28/01:30am 14.0 13.2 11.2 83 1.5 SW 6 9 3 5 1009.9 1009.8 0.6
28/01:00am 13.9 13.0 11.2 84 1.4 SW 7 11 4 6 1010.0 1009.9 0.6
28/12:30am 13.9 13.1 11.2 84 1.4 SW 6 11 3 6 1010.1 1010.0 0.6
28/12:00am 13.6 13.0 11.7 88 1.0 SW 6 7 3 4 1010.2 1010.1 0.6
 
Date/Time
EDT
Temp
°C
App
Temp
°C
Dew
Point
Rel
Hum
%
Delta-T
°C
Wind Press
QNH
hPa
Press
MSL
hPa
Rain
since 9 am
mm
Dir
 
Spd
km/h
Gust
km/h
Spd
kts
Gust
kts
27/11:30pm 13.6 12.8 11.8 89 1.0 SSW 7 11 4 6 1010.1 1010.0 0.6
27/11:00pm 13.6 14.3 12.3 92 0.7 CALM 0 6 0 3 1010.4 1010.3 0.6
27/10:30pm 13.6 13.0 12.3 92 0.7 SSW 7 17 4 9 1010.5 1010.4 0.4
27/10:00pm 13.9 12.2 12.6 92 0.7 S 13 24 7 13 1010.3 1010.2 0.4
27/09:30pm 15.0 12.3 12.9 87 1.2 S 19 26 10 14 1009.7 1009.6 0.0
27/09:00pm 15.6 14.8 14.1 91 0.9 SSW 11 19 6 10 1009.3 1009.2 0.0
27/08:30pm 16.5 15.9 14.5 88 1.1 SSW 11 22 6 12 1009.0 1008.9 0.0
27/08:00pm 17.1 18.3 13.8 81 1.9 CALM 0 0 0 0 1008.6 1008.5 0.0
27/07:30pm 17.8 19.1 14.1 79 2.1 CALM 0 0 0 0 1008.3 1008.2 0.0
27/07:00pm 18.1 18.3 14.2 78 2.2 NNE 6 11 3 6 1008.5 1008.4 0.0
27/06:30pm 18.3 18.5 14.6 79 2.1 NNE 7 11 4 6 1008.1 1008.0 0.0
27/06:00pm 18.4 18.1 14.5 78 2.3 NE 9 17 5 9 1007.6 1007.5 0.0
27/05:30pm 18.4 17.8 14.7 79 2.2 NE 11 17 6 9 1007.6 1007.5 0.0
27/05:00pm 19.2 18.8 15.1 77 2.4 NE 11 15 6 8 1007.5 1007.4 0.0
27/04:30pm 18.1 17.5 14.6 80 2.0 NE 11 17 6 9 1007.5 1007.4 0.0
27/04:00pm 18.5 17.9 14.6 78 2.3 ENE 11 17 6 9 1007.9 1007.8 0.0
27/03:30pm 17.9 17.1 14.0 78 2.2 ENE 11 17 6 9 1008.4 1008.3 0.0
27/03:00pm 19.1 18.6 13.9 72 3.0 ENE 9 15 5 8 1008.6 1008.5 0.0
27/02:30pm 19.4 17.9 14.2 72 3.0 NE 15 20 8 11 1008.3 1008.2 0.0
27/02:00pm 19.1 18.0 14.4 74 2.7 ENE 13 20 7 11 1008.6 1008.5 0.0
27/01:30pm 18.9 18.6 14.4 75 2.6 ENE 9 13 5 7 1009.3 1009.2 0.0
27/01:00pm 17.5 17.4 13.8 79 2.1 ENE 7 13 4 7 1009.3 1009.2 0.0
27/12:30pm 16.7 16.4 12.8 78 2.2 ENE 6 7 3 4 1009.6 1009.5 0.0
27/12:00pm 17.6 17.4 13.1 75 2.5 E 6 9 3 5 1009.7 1009.6 0.0
27/11:30am 17.2 18.4 13.7 80 2.0 CALM 0 2 0 1 1010.3 1010.2 0.0
27/11:00am 15.3 14.9 12.4 83 1.6 WNW 6 9 3 5 1010.6 1010.5 0.0
27/10:30am 14.7 14.0 12.0 84 1.5 W 7 11 4 6 1010.8 1010.7 0.0
27/10:00am 14.1 13.5 11.8 86 1.2 W 6 9 3 5 1010.6 1010.5 0.0
27/09:30am 13.9 13.4 11.9 88 1.1 WNW 6 9 3 5 1010.6 1010.5 0.0
27/09:00am 13.6 13.0 11.8 89 1.0 W 6 9 3 5 1010.8 1010.7 2.0
27/08:30am 13.5 14.2 12.1 91 0.8 CALM 0 4 0 2 1011.0 1010.9 2.0
27/08:00am 13.2 13.4 11.8 91 0.8 W 2 4 1 2 1010.8 1010.7 2.0
27/07:30am 12.6 11.9 11.5 93 0.6 WNW 6 9 3 5 1010.9 1010.8 2.0
27/07:00am 12.2 11.2 11.1 93 0.6 W 7 9 4 5 1010.8 1010.7 2.0
27/06:30am 12.1 11.2 10.8 92 0.7 WNW 6 7 3 4 1010.6 1010.5 2.0
27/06:00am 12.2 11.3 10.6 90 0.8 W 6 7 3 4 1010.2 1010.1 2.0
27/05:30am 12.2 12.4 10.6 90 0.8 CALM 0 4 0 2 1010.1 1010.0 2.0
27/05:00am 12.2 12.0 10.6 90 0.8 SSE 2 4 1 2 1010.5 1010.4 2.0
27/04:30am 12.1 12.0 10.8 92 0.7 NW 2 4 1 2 1010.6 1010.5 2.0
27/04:00am 12.1 11.2 10.8 92 0.7 NW 6 9 3 5 1010.8 1010.7 2.0
27/03:30am 12.2 12.5 10.9 92 0.7 CALM 0 0 0 0 1010.9 1010.8 2.0
27/03:00am 12.1 12.0 10.8 92 0.7 WNW 2 4 1 2 1011.0 1010.9 2.0
27/02:30am 12.3 11.3 10.4 88 1.0 SSE 6 9 3 5 1011.2 1011.1 2.0
27/02:00am 12.2 10.3 10.4 89 0.9 SE 11 15 6 8 1011.5 1011.4 1.8
27/01:30am 12.3 10.1 10.7 90 0.8 SE 13 15 7 8 1011.8 1011.7 1.8
27/01:00am 12.5 10.7 10.9 90 0.8 ESE 11 17 6 9 1012.0 1011.9 1.6
27/12:30am 12.7 10.9 10.8 88 1.0 ESE 11 17 6 9 1011.9 1011.8 1.2
27/12:00am 13.0 12.0 10.9 87 1.1 SSE 7 13 4 7 1011.9 1011.8 0.8
 
Date/Time
EDT
Temp
°C
App
Temp
°C
Dew
Point
Rel
Hum
%
Delta-T
°C
Wind Press
QNH
hPa
Press
MSL
hPa
Rain
since 9 am
mm
Dir
 
Spd
km/h
Gust
km/h
Spd
kts
Gust
kts
26/11:30pm 13.2 11.9 11.1 87 1.1 S 9 13 5 7 1011.8 1011.7 0.6
26/11:00pm 13.5 12.5 10.9 84 1.4 SSW 7 15 4 8 1011.9 1011.8 0.4
26/10:30pm 13.9 13.4 10.9 82 1.6 WSW 4 7 2 4 1012.0 1011.9 0.2
26/10:00pm 13.8 13.3 10.8 82 1.6 SW 4 9 2 5 1011.8 1011.7 0.2
26/09:30pm 14.0 13.2 11.2 83 1.5 SSW 6 9 3 5 1011.5 1011.4 0.2
26/09:00pm 13.8 13.5 11.5 86 1.2 W 4 6 2 3 1011.3 1011.2 0.2
26/08:30pm 13.8 13.5 11.5 86 1.2 SSW 4 6 2 3 1010.6 1010.5 0.2
26/08:00pm 13.7 13.0 11.4 86 1.2 SW 6 15 3 8 1010.2 1010.1 0.0
26/07:30pm 14.6 13.5 12.1 85 1.4 SSW 9 15 5 8 1009.6 1009.5 0.0
26/07:00pm 15.4 14.1 11.4 77 2.2 SSW 9 15 5 8 1009.2 1009.1 0.0
26/06:30pm 15.7 14.0 12.3 80 1.9 SSE 13 24 7 13 1008.6 1008.5 0.0
26/06:00pm 16.1 11.2 12.5 79 2.0 SSE 30 43 16 23 1008.0 1007.9 0.0
26/05:30pm 17.4 12.4 13.5 78 2.2 SSE 32 48 17 26 1007.4 1007.3 0.0
26/05:00pm 18.5 15.1 13.8 74 2.7 SSW 24 39 13 21 1006.5 1006.3 0.0
26/04:30pm 20.9 20.3 15.7 72 3.1 NNE 13 19 7 10 1005.7 1005.5 0.0
26/04:00pm 20.7 19.3 15.5 72 3.1 NNE 17 24 9 13 1005.6 1005.4 0.0
26/03:30pm 21.1 20.0 15.2 69 3.5 NE 15 24 8 13 1005.6 1005.4 0.0

Other Formats:

Comma delimited format used in spreadsheet applications
http://www.bom.gov.au/fwo/IDT60801/IDT60801.94987.axf

JavaScript Object Notation format (JSON) in row-major order
http://www.bom.gov.au/fwo/IDT60801/IDT60801.94987.json